createdAt,value
2023-05-19T00:00:16.949Z,14.90
2023-05-19T00:01:19.117Z,14.92
2023-05-19T00:02:21.168Z,14.92
2023-05-19T00:03:23.104Z,14.96
2023-05-19T00:04:24.861Z,14.97
2023-05-19T00:05:28.071Z,15.00
2023-05-19T00:06:32.134Z,15.05
2023-05-19T00:07:34.681Z,15.03
2023-05-19T00:08:38.331Z,14.94
2023-05-19T00:09:40.152Z,14.64
2023-05-19T00:10:42.118Z,14.53
2023-05-19T00:11:43.990Z,14.60
2023-05-19T00:12:45.802Z,14.66
2023-05-19T00:13:49.708Z,14.57
2023-05-19T00:14:51.960Z,14.47
2023-05-19T00:15:54.046Z,14.43
2023-05-19T00:16:56.241Z,14.42
2023-05-19T00:17:58.120Z,14.34
2023-05-19T00:19:01.553Z,14.26
2023-05-19T00:20:07.470Z,14.34
2023-05-19T00:21:09.547Z,14.42
2023-05-19T00:22:11.521Z,14.47
2023-05-19T00:23:13.112Z,14.41
2023-05-19T00:24:14.733Z,14.25
2023-05-19T00:25:16.322Z,14.15
2023-05-19T00:26:18.258Z,14.20
2023-05-19T00:27:19.829Z,14.15
2023-05-19T00:28:21.368Z,13.98
2023-05-19T00:29:23.004Z,13.96
2023-05-19T00:30:24.809Z,13.97
2023-05-19T00:31:26.488Z,13.98
2023-05-19T00:32:28.079Z,14.00
2023-05-19T00:33:29.798Z,13.98
2023-05-19T00:34:31.400Z,13.89
2023-05-19T00:35:33.125Z,13.64
2023-05-19T00:36:34.748Z,13.52
2023-05-19T00:37:36.394Z,13.52
2023-05-19T00:38:38.396Z,13.53
2023-05-19T00:39:40.024Z,13.58
2023-05-19T00:40:41.711Z,13.68
2023-05-19T00:41:43.440Z,13.76
2023-05-19T00:42:45.134Z,13.82
2023-05-19T00:43:46.722Z,13.76
2023-05-19T00:44:48.315Z,13.71
2023-05-19T00:45:51.246Z,13.72
2023-05-19T00:46:52.884Z,13.75
2023-05-19T00:47:54.689Z,13.80
2023-05-19T00:48:56.376Z,13.81
2023-05-19T00:49:57.901Z,13.84
2023-05-19T00:51:04.736Z,13.81
2023-05-19T00:52:07.286Z,13.78
2023-05-19T00:53:09.307Z,13.76
2023-05-19T00:54:10.917Z,13.74
2023-05-19T00:55:14.024Z,13.81
2023-05-19T00:56:17.526Z,13.89
2023-05-19T00:57:19.393Z,13.96
2023-05-19T00:58:21.121Z,14.00
2023-05-19T00:59:22.726Z,14.01
2023-05-19T01:00:24.589Z,13.91
2023-05-19T01:01:26.849Z,13.72
2023-05-19T01:02:29.856Z,13.48
2023-05-19T01:03:35.237Z,13.28
2023-05-19T01:04:38.295Z,13.15
2023-05-19T01:05:44.893Z,13.16
2023-05-19T01:06:54.833Z,13.11
2023-05-19T01:07:56.610Z,13.07
2023-05-19T01:08:58.376Z,13.05
2023-05-19T01:10:00.335Z,13.07
2023-05-19T01:11:01.916Z,13.14
2023-05-19T01:12:04.054Z,13.11
2023-05-19T01:13:07.033Z,12.95
2023-05-19T01:14:09.154Z,12.81
2023-05-19T01:15:11.661Z,12.91
2023-05-19T01:16:16.168Z,12.98
2023-05-19T01:17:44.951Z,13.10
2023-05-19T01:19:12.675Z,13.23
2023-05-19T01:20:25.959Z,13.38
2023-05-19T01:21:51.223Z,13.46
2023-05-19T01:23:28.825Z,13.59
2023-05-19T01:25:07.054Z,13.67
2023-05-19T01:26:29.807Z,13.82
2023-05-19T01:27:34.248Z,13.87
2023-05-19T01:28:44.891Z,13.90
2023-05-19T01:30:13.497Z,13.94
2023-05-19T01:31:16.959Z,14.01
2023-05-19T01:32:21.094Z,14.04
2023-05-19T01:33:24.048Z,14.11
2023-05-19T01:34:27.452Z,14.15
2023-05-19T01:35:30.836Z,14.18
2023-05-19T01:36:33.835Z,14.20
2023-05-19T01:37:38.863Z,14.19
2023-05-19T01:38:42.614Z,14.03
2023-05-19T01:39:45.716Z,13.86
2023-05-19T01:40:49.555Z,13.83
2023-05-19T01:41:52.437Z,13.82
2023-05-19T01:42:57.687Z,13.74
2023-05-19T01:43:59.987Z,13.71
2023-05-19T01:45:02.268Z,13.73
2023-05-19T01:46:04.370Z,13.77
2023-05-19T01:47:06.361Z,13.82
2023-05-19T01:48:10.899Z,13.82
2023-05-19T01:49:13.549Z,13.85
2023-05-19T01:50:15.421Z,13.88
2023-05-19T01:51:17.108Z,13.88
2023-05-19T01:52:18.696Z,13.83
2023-05-19T01:53:20.366Z,13.85
2023-05-19T01:54:21.950Z,13.83
2023-05-19T01:55:23.901Z,13.90
2023-05-19T01:56:41.281Z,13.98
2023-05-19T01:58:17.680Z,14.00
2023-05-19T01:59:39.241Z,14.08
2023-05-19T02:00:54.273Z,14.18
2023-05-19T02:02:00.729Z,14.25
2023-05-19T02:03:23.605Z,14.32
2023-05-19T02:04:30.484Z,14.33
2023-05-19T02:05:38.314Z,14.38
2023-05-19T02:07:03.801Z,14.38
2023-05-19T02:08:37.409Z,14.25
2023-05-19T02:09:51.490Z,14.12
2023-05-19T02:11:04.223Z,14.08
2023-05-19T02:12:25.977Z,13.82
2023-05-19T02:13:32.801Z,13.76
2023-05-19T02:14:40.256Z,13.82
2023-05-19T02:15:42.496Z,13.88
2023-05-19T02:16:47.640Z,13.92
2023-05-19T02:17:54.408Z,13.93
2023-05-19T02:18:56.495Z,13.90
2023-05-19T02:19:58.143Z,13.88
2023-05-19T02:20:59.795Z,13.92
2023-05-19T02:22:01.419Z,13.98
2023-05-19T02:23:03.013Z,14.03
2023-05-19T02:24:04.804Z,14.11
2023-05-19T02:25:07.098Z,14.13
2023-05-19T02:26:08.837Z,14.14
2023-05-19T02:27:10.584Z,14.12
2023-05-19T02:28:12.161Z,14.12
2023-05-19T02:29:13.822Z,14.14
2023-05-19T02:30:15.574Z,14.19
2023-05-19T02:31:17.174Z,14.21
2023-05-19T02:32:18.966Z,14.24
2023-05-19T02:33:20.748Z,14.24
2023-05-19T02:34:22.966Z,14.17
2023-05-19T02:35:24.547Z,14.07
2023-05-19T02:36:26.672Z,13.99
2023-05-19T02:37:32.574Z,13.93
2023-05-19T02:38:34.214Z,13.89
2023-05-19T02:39:35.957Z,13.94
2023-05-19T02:40:37.538Z,13.95
2023-05-19T02:41:39.508Z,13.98
2023-05-19T02:42:41.768Z,13.91
2023-05-19T02:43:43.629Z,13.78
2023-05-19T02:44:45.260Z,13.55
2023-05-19T02:45:46.856Z,13.41
2023-05-19T02:46:48.575Z,13.42
2023-05-19T02:47:50.364Z,13.51
2023-05-19T02:48:53.411Z,13.53
2023-05-19T02:49:55.164Z,13.50
2023-05-19T02:50:56.755Z,13.37
2023-05-19T02:51:58.352Z,13.35
2023-05-19T02:52:59.932Z,13.36
2023-05-19T02:54:01.546Z,13.42
2023-05-19T02:55:03.489Z,13.49
2023-05-19T02:56:05.129Z,13.50
2023-05-19T02:57:07.158Z,13.50
2023-05-19T02:58:08.756Z,13.51
2023-05-19T02:59:10.439Z,13.52
2023-05-19T03:00:12.532Z,13.51
2023-05-19T03:01:14.162Z,13.37
2023-05-19T03:02:15.840Z,13.31
2023-05-19T03:03:18.327Z,13.34
2023-05-19T03:04:20.229Z,13.39
2023-05-19T03:05:21.859Z,13.46
2023-05-19T03:06:23.658Z,13.53
2023-05-19T03:07:25.529Z,13.58
2023-05-19T03:08:27.277Z,13.64
2023-05-19T03:09:28.884Z,13.70
2023-05-19T03:10:31.525Z,13.59
2023-05-19T03:11:33.381Z,13.39
2023-05-19T03:12:34.996Z,13.31
2023-05-19T03:13:36.734Z,13.29
2023-05-19T03:14:38.802Z,13.32
2023-05-19T03:15:42.490Z,13.38
2023-05-19T03:16:44.220Z,13.31
2023-05-19T03:17:46.077Z,13.33
2023-05-19T03:18:47.913Z,13.42
2023-05-19T03:19:49.536Z,13.54
2023-05-19T03:20:51.288Z,13.62
2023-05-19T03:21:52.834Z,13.63
2023-05-19T03:22:54.468Z,13.61
2023-05-19T03:23:56.089Z,13.59
2023-05-19T03:24:58.551Z,13.60
2023-05-19T03:26:00.168Z,13.64
2023-05-19T03:27:02.574Z,13.64
2023-05-19T03:28:04.319Z,13.71
2023-05-19T03:29:06.023Z,13.72
2023-05-19T03:30:08.248Z,13.75
2023-05-19T03:31:09.851Z,13.79
2023-05-19T03:32:11.515Z,13.74
2023-05-19T03:33:13.279Z,13.33
2023-05-19T03:34:15.002Z,13.33
2023-05-19T03:35:16.653Z,13.36
2023-05-19T03:36:18.257Z,13.25
2023-05-19T03:37:19.836Z,13.06
2023-05-19T03:38:21.463Z,12.89
2023-05-19T03:39:23.104Z,12.77
2023-05-19T03:40:24.748Z,12.66
2023-05-19T03:41:26.405Z,12.73
2023-05-19T03:42:27.990Z,12.87
2023-05-19T03:43:29.676Z,13.00
2023-05-19T03:44:31.280Z,13.10
2023-05-19T03:45:35.030Z,13.19
2023-05-19T03:46:36.594Z,13.29
2023-05-19T03:47:38.233Z,13.37
2023-05-19T03:48:39.871Z,13.40
2023-05-19T03:49:41.545Z,13.47
2023-05-19T03:50:44.622Z,13.54
2023-05-19T03:51:46.282Z,13.55
2023-05-19T03:52:48.956Z,13.55
2023-05-19T03:53:50.922Z,13.56
2023-05-19T03:54:53.016Z,13.60
2023-05-19T03:55:56.158Z,13.62
2023-05-19T03:56:58.208Z,13.60
2023-05-19T03:57:59.886Z,13.58
2023-05-19T03:59:01.568Z,13.60
2023-05-19T04:00:05.733Z,13.68
2023-05-19T04:01:07.293Z,13.60
2023-05-19T04:02:08.894Z,13.49
2023-05-19T04:03:10.798Z,13.47
2023-05-19T04:04:12.526Z,13.38
2023-05-19T04:05:14.863Z,13.31
2023-05-19T04:06:17.635Z,13.23
2023-05-19T04:07:19.391Z,13.28
2023-05-19T04:08:21.049Z,13.35
2023-05-19T04:09:24.167Z,13.40
2023-05-19T04:10:26.052Z,13.37
2023-05-19T04:11:27.697Z,12.98
2023-05-19T04:12:29.259Z,12.80
2023-05-19T04:13:33.359Z,12.83
2023-05-19T04:14:34.926Z,12.95
2023-05-19T04:15:36.504Z,13.06
2023-05-19T04:16:38.131Z,13.22
2023-05-19T04:17:40.004Z,13.36
2023-05-19T04:18:42.400Z,13.39
2023-05-19T04:19:44.105Z,13.29
2023-05-19T04:20:45.743Z,13.27
2023-05-19T04:21:47.396Z,13.34
2023-05-19T04:22:48.999Z,13.41
2023-05-19T04:23:50.551Z,13.55
2023-05-19T04:24:53.067Z,13.77
2023-05-19T04:25:55.169Z,13.93
2023-05-19T04:26:56.842Z,14.04
2023-05-19T04:27:58.867Z,14.12
2023-05-19T04:29:04.153Z,14.22
2023-05-19T04:30:06.930Z,14.30
2023-05-19T04:31:12.889Z,14.26
2023-05-19T04:32:17.641Z,14.18
2023-05-19T04:33:20.161Z,14.17
2023-05-19T04:34:21.870Z,14.09
2023-05-19T04:35:23.823Z,13.99
2023-05-19T04:36:25.525Z,13.87
2023-05-19T04:37:27.235Z,13.79
2023-05-19T04:38:30.205Z,13.82
2023-05-19T04:39:31.743Z,14.03
2023-05-19T04:40:33.493Z,14.23
2023-05-19T04:41:35.267Z,14.17
2023-05-19T04:42:36.813Z,14.28
2023-05-19T04:43:44.541Z,14.36
2023-05-19T04:44:49.316Z,14.31
2023-05-19T04:45:51.524Z,14.30
2023-05-19T04:46:54.564Z,14.24
2023-05-19T04:47:58.275Z,14.00
2023-05-19T04:49:01.368Z,13.87
2023-05-19T04:50:04.187Z,13.97
2023-05-19T04:51:07.567Z,14.14
2023-05-19T04:52:10.898Z,14.34
2023-05-19T04:53:12.547Z,14.45
2023-05-19T04:54:14.140Z,14.46
2023-05-19T04:55:15.944Z,14.49
2023-05-19T04:56:17.536Z,14.60
2023-05-19T04:57:19.187Z,14.77
2023-05-19T04:58:22.510Z,14.91
2023-05-19T04:59:24.154Z,14.81
2023-05-19T05:00:26.058Z,14.90
2023-05-19T05:01:28.053Z,15.05
2023-05-19T05:02:29.720Z,15.19
2023-05-19T05:03:33.317Z,15.13
2023-05-19T05:04:36.056Z,14.98
2023-05-19T05:05:37.677Z,15.05
2023-05-19T05:06:40.591Z,15.22
2023-05-19T05:07:43.093Z,15.39
2023-05-19T05:08:44.671Z,15.39
2023-05-19T05:09:46.244Z,15.49
2023-05-19T05:10:48.066Z,15.71
2023-05-19T05:11:50.040Z,15.88
2023-05-19T05:12:51.965Z,15.81
2023-05-19T05:13:53.882Z,15.84
2023-05-19T05:14:55.660Z,15.94
2023-05-19T05:15:57.651Z,15.91
2023-05-19T05:16:59.588Z,15.81
2023-05-19T05:18:01.622Z,15.89
2023-05-19T05:19:03.890Z,16.02
2023-05-19T05:20:06.980Z,16.06
2023-05-19T05:21:09.169Z,16.01
2023-05-19T05:22:11.084Z,16.08
2023-05-19T05:23:16.708Z,16.25
2023-05-19T05:24:18.631Z,16.36
2023-05-19T05:25:20.848Z,16.48
2023-05-19T05:26:23.393Z,16.43
2023-05-19T05:27:24.984Z,16.39
2023-05-19T05:28:26.612Z,16.57
2023-05-19T05:29:28.242Z,16.79
2023-05-19T05:30:29.808Z,16.96
2023-05-19T05:31:31.685Z,17.15
2023-05-19T05:32:33.410Z,17.23
2023-05-19T05:33:35.117Z,17.36
2023-05-19T05:34:38.166Z,17.56
2023-05-19T05:35:39.811Z,17.73
2023-05-19T05:36:41.425Z,17.90
2023-05-19T05:37:43.048Z,17.93
2023-05-19T05:38:44.905Z,17.82
2023-05-19T05:39:46.509Z,17.73
2023-05-19T05:40:48.117Z,17.82
2023-05-19T05:41:49.751Z,17.79
2023-05-19T05:42:51.427Z,17.62
2023-05-19T05:43:53.008Z,17.66
2023-05-19T05:44:54.712Z,17.85
2023-05-19T05:45:57.294Z,17.86
2023-05-19T05:46:59.219Z,17.61
2023-05-19T05:48:01.222Z,17.35
2023-05-19T05:49:03.209Z,17.53
2023-05-19T05:50:06.237Z,17.75
2023-05-19T05:51:08.261Z,17.86
2023-05-19T05:52:12.458Z,17.85
2023-05-19T05:53:21.750Z,17.61
2023-05-19T05:54:24.984Z,17.51
2023-05-19T05:55:26.989Z,17.34
2023-05-19T05:56:28.974Z,17.20
2023-05-19T05:57:30.991Z,17.40
2023-05-19T05:58:36.296Z,17.67
2023-05-19T05:59:38.921Z,17.90
2023-05-19T06:00:43.561Z,18.14
2023-05-19T06:01:45.165Z,18.30
2023-05-19T06:02:49.399Z,18.27
2023-05-19T06:03:51.397Z,18.24
2023-05-19T06:04:54.179Z,18.10
2023-05-19T06:05:55.925Z,18.17
2023-05-19T06:07:01.207Z,18.30
2023-05-19T06:08:03.261Z,18.48
2023-05-19T06:09:05.505Z,18.53
2023-05-19T06:10:08.768Z,18.31
2023-05-19T06:11:10.448Z,18.21
2023-05-19T06:12:12.110Z,18.09
2023-05-19T06:13:13.738Z,18.25
2023-05-19T06:14:15.543Z,18.49
2023-05-19T06:15:17.257Z,18.66
2023-05-19T06:16:18.925Z,18.69
2023-05-19T06:17:20.538Z,18.63
2023-05-19T06:18:22.353Z,18.52
2023-05-19T06:19:25.565Z,18.65
2023-05-19T06:20:27.396Z,18.75
2023-05-19T06:21:29.088Z,18.77
2023-05-19T06:22:30.875Z,19.02
2023-05-19T06:23:32.565Z,19.27
2023-05-19T06:24:34.165Z,19.40
2023-05-19T06:25:35.907Z,19.44
2023-05-19T06:26:37.813Z,19.50
2023-05-19T06:27:39.489Z,19.60
2023-05-19T06:28:41.114Z,19.59
2023-05-19T06:29:42.679Z,19.44
2023-05-19T06:30:44.318Z,19.07
2023-05-19T06:31:46.565Z,19.00
2023-05-19T06:32:48.260Z,19.23
2023-05-19T06:33:49.866Z,19.43
2023-05-19T06:34:54.341Z,19.06
2023-05-19T06:35:56.228Z,18.99
2023-05-19T06:36:57.836Z,19.18
2023-05-19T06:37:59.381Z,19.49
2023-05-19T06:39:02.596Z,19.67
2023-05-19T06:40:05.693Z,19.92
2023-05-19T06:41:07.265Z,20.10
2023-05-19T06:42:08.867Z,20.30
2023-05-19T06:43:10.530Z,20.53
2023-05-19T06:44:12.140Z,20.56
2023-05-19T06:45:13.848Z,20.35
2023-05-19T06:46:17.760Z,20.39
2023-05-19T06:47:19.724Z,20.58
2023-05-19T06:48:21.351Z,20.72
2023-05-19T06:49:23.032Z,20.92
2023-05-19T06:50:25.484Z,20.92
2023-05-19T06:51:27.291Z,20.83
2023-05-19T06:52:28.955Z,20.90
2023-05-19T06:53:31.112Z,20.87
2023-05-19T06:54:32.780Z,20.56
2023-05-19T06:55:43.941Z,20.49
2023-05-19T06:56:52.330Z,20.51
2023-05-19T06:57:53.920Z,20.62
2023-05-19T06:58:55.549Z,20.82
2023-05-19T06:59:57.176Z,20.96
2023-05-19T07:00:58.736Z,20.67
2023-05-19T07:02:02.415Z,20.57
2023-05-19T07:03:04.318Z,20.56
2023-05-19T07:04:06.254Z,20.67
2023-05-19T07:05:08.303Z,20.75
2023-05-19T07:06:09.987Z,20.91
2023-05-19T07:07:11.583Z,21.06
2023-05-19T07:08:13.191Z,21.14
2023-05-19T07:09:14.757Z,20.69
2023-05-19T07:10:17.010Z,20.29
2023-05-19T07:11:18.580Z,20.20
2023-05-19T07:12:20.119Z,20.27
2023-05-19T07:13:22.105Z,20.34
2023-05-19T07:14:23.716Z,20.28
2023-05-19T07:15:25.693Z,20.36
2023-05-19T07:16:27.337Z,20.56
2023-05-19T07:17:28.932Z,20.76
2023-05-19T07:18:33.372Z,20.85
2023-05-19T07:19:34.985Z,20.75
2023-05-19T07:20:36.570Z,20.78
2023-05-19T07:21:38.224Z,20.95
2023-05-19T07:22:40.193Z,21.10
2023-05-19T07:23:41.922Z,21.13
2023-05-19T07:24:43.460Z,21.08
2023-05-19T07:25:45.051Z,20.88
2023-05-19T07:26:46.773Z,20.55
2023-05-19T07:27:48.314Z,20.35
2023-05-19T07:28:50.013Z,20.59
2023-05-19T07:29:51.626Z,20.77
2023-05-19T07:30:53.224Z,21.05
2023-05-19T07:31:57.949Z,21.21
2023-05-19T07:32:59.728Z,21.31
2023-05-19T07:34:01.479Z,21.35
2023-05-19T07:35:03.278Z,21.47
2023-05-19T07:36:05.056Z,21.59
2023-05-19T07:37:06.650Z,21.58
2023-05-19T07:38:08.242Z,21.53
2023-05-19T07:39:10.466Z,21.14
2023-05-19T07:40:12.304Z,20.80
2023-05-19T07:41:13.955Z,21.05
2023-05-19T07:42:15.554Z,21.17
2023-05-19T07:43:17.297Z,21.37
2023-05-19T07:44:19.279Z,21.52
2023-05-19T07:45:20.845Z,21.70
2023-05-19T07:46:22.546Z,21.78
2023-05-19T07:47:24.220Z,21.95
2023-05-19T07:48:25.997Z,22.04
2023-05-19T07:49:27.602Z,22.07
2023-05-19T07:50:29.223Z,22.06
2023-05-19T07:51:31.801Z,22.15
2023-05-19T07:52:33.474Z,22.12
2023-05-19T07:53:35.102Z,22.25
2023-05-19T07:54:36.755Z,22.43
2023-05-19T07:55:38.361Z,22.24
2023-05-19T07:56:40.080Z,22.04
2023-05-19T07:57:41.678Z,21.89
2023-05-19T07:58:43.337Z,21.89
2023-05-19T07:59:45.523Z,22.18
2023-05-19T08:00:47.113Z,22.40
2023-05-19T08:01:49.217Z,22.62
2023-05-19T08:02:51.349Z,22.75
2023-05-19T08:03:53.247Z,22.81
2023-05-19T08:04:55.057Z,22.87
2023-05-19T08:05:56.832Z,22.89
2023-05-19T08:06:58.600Z,22.76
2023-05-19T08:08:00.169Z,22.68
2023-05-19T08:09:01.957Z,22.86
2023-05-19T08:10:04.199Z,22.98
2023-05-19T08:11:06.653Z,23.17
2023-05-19T08:12:08.352Z,23.15
2023-05-19T08:13:09.937Z,23.18
2023-05-19T08:14:11.491Z,23.27
2023-05-19T08:15:13.139Z,23.37
2023-05-19T08:16:16.223Z,23.35
2023-05-19T08:17:17.936Z,23.36
2023-05-19T08:18:20.174Z,23.38
2023-05-19T08:19:21.862Z,23.30
2023-05-19T08:20:24.448Z,23.23
2023-05-19T08:21:26.058Z,23.06
2023-05-19T08:22:28.123Z,23.02
2023-05-19T08:23:29.851Z,23.07
2023-05-19T08:24:32.915Z,23.19
2023-05-19T08:25:40.981Z,23.17
2023-05-19T08:26:44.429Z,23.03
2023-05-19T08:27:46.138Z,23.08
2023-05-19T08:28:47.810Z,23.16
2023-05-19T08:29:49.522Z,23.26
2023-05-19T08:31:00.076Z,23.44
2023-05-19T08:32:02.814Z,23.55
2023-05-19T08:33:04.489Z,23.57
2023-05-19T08:34:06.198Z,23.50
2023-05-19T08:35:08.498Z,23.43
2023-05-19T08:36:16.257Z,23.45
2023-05-19T08:37:17.843Z,23.38
2023-05-19T08:38:19.432Z,23.20
2023-05-19T08:39:26.574Z,23.11
2023-05-19T08:40:31.530Z,23.06
2023-05-19T08:44:36.525Z,22.94
2023-05-19T08:45:43.133Z,22.81
2023-05-19T08:46:44.998Z,22.78
2023-05-19T08:47:47.463Z,22.78
2023-05-19T08:48:54.279Z,22.93
2023-05-19T08:51:42.849Z,22.65
2023-05-19T08:53:31.929Z,22.50
2023-05-19T08:54:46.033Z,22.36
2023-05-19T08:55:53.367Z,22.26
2023-05-19T08:56:55.619Z,22.24
2023-05-19T08:57:57.390Z,22.32
2023-05-19T08:59:00.491Z,22.38
2023-05-19T09:00:09.183Z,22.40
2023-05-19T09:01:14.503Z,22.39
2023-05-19T09:02:16.726Z,22.45
2023-05-19T09:04:28.400Z,22.46
2023-05-19T09:05:32.614Z,22.47
2023-05-19T09:06:34.913Z,22.24
2023-05-19T09:07:37.951Z,22.34
2023-05-19T09:08:41.020Z,22.39
2023-05-19T09:09:44.119Z,22.45
2023-05-19T09:10:45.815Z,22.50
2023-05-19T09:11:47.493Z,22.48
2023-05-19T09:12:49.899Z,22.53
2023-05-19T09:13:51.991Z,22.61
2023-05-19T09:14:53.947Z,22.69
2023-05-19T09:15:57.476Z,22.75
2023-05-19T09:16:59.204Z,22.65
2023-05-19T09:18:14.199Z,22.80
2023-05-19T09:19:16.104Z,22.94
2023-05-19T09:20:17.759Z,22.99
2023-05-19T09:21:19.430Z,22.95
2023-05-19T09:22:21.219Z,22.87
2023-05-19T09:23:24.979Z,22.93
2023-05-19T09:24:27.626Z,22.95
2023-05-19T09:25:29.256Z,22.90
2023-05-19T09:26:43.093Z,22.72
2023-05-19T09:27:46.927Z,22.61
2023-05-19T09:28:48.677Z,22.43
2023-05-19T09:29:51.007Z,22.50
2023-05-19T09:31:09.309Z,22.50
2023-05-19T09:32:11.106Z,22.68
2023-05-19T09:33:19.499Z,22.76
2023-05-19T09:34:22.471Z,22.91
2023-05-19T09:35:24.091Z,23.00
2023-05-19T09:36:25.801Z,23.00
2023-05-19T09:37:28.016Z,23.11
2023-05-19T09:38:29.793Z,23.11
2023-05-19T09:39:32.845Z,23.13
2023-05-19T09:40:34.538Z,23.08
2023-05-19T09:41:36.220Z,22.94
2023-05-19T09:42:39.112Z,22.86
2023-05-19T09:43:40.698Z,22.92
2023-05-19T09:44:42.621Z,23.11
2023-05-19T09:45:44.442Z,23.27
2023-05-19T09:46:53.279Z,23.49
2023-05-19T09:47:54.906Z,23.62
2023-05-19T09:48:59.618Z,23.54
2023-05-19T09:50:01.206Z,23.56
2023-05-19T09:51:07.938Z,23.62
2023-05-19T09:52:11.184Z,23.69
2023-05-19T09:53:17.469Z,23.64
2023-05-19T09:54:20.553Z,23.53
2023-05-19T09:55:26.978Z,23.49
2023-05-19T09:56:34.515Z,23.58
2023-05-19T09:57:37.306Z,23.67
2023-05-19T09:58:42.318Z,23.68
2023-05-19T09:59:44.744Z,23.64
2023-05-19T10:00:47.852Z,23.45
2023-05-19T10:01:49.682Z,23.26
2023-05-19T10:02:51.738Z,23.11
2023-05-19T10:03:53.765Z,23.09
2023-05-19T10:04:55.937Z,23.34
2023-05-19T10:05:57.766Z,23.50
2023-05-19T10:07:00.213Z,23.65
2023-05-19T10:08:03.172Z,23.80
2023-05-19T10:09:05.584Z,23.93
2023-05-19T10:10:09.794Z,24.06
2023-05-19T10:11:12.251Z,24.16
2023-05-19T10:12:13.933Z,24.13
2023-05-19T10:13:16.749Z,24.00
2023-05-19T10:14:19.266Z,23.90
2023-05-19T10:15:23.194Z,23.84
2023-05-19T10:16:26.768Z,23.76
2023-05-19T10:17:29.058Z,23.67
2023-05-19T10:18:32.727Z,23.68
2023-05-19T10:19:36.494Z,23.70
2023-05-19T10:20:40.175Z,23.78
2023-05-19T10:21:41.760Z,23.73
2023-05-19T10:22:47.119Z,23.58
2023-05-19T10:23:48.752Z,23.52
2023-05-19T10:24:50.424Z,23.44
2023-05-19T10:25:57.304Z,23.37
2023-05-19T10:27:05.558Z,23.32
2023-05-19T10:28:11.622Z,23.18
2023-05-19T10:29:17.656Z,22.99
2023-05-19T10:30:26.462Z,22.90
2023-05-19T10:31:28.652Z,22.91
2023-05-19T10:32:32.717Z,22.76
2023-05-19T10:34:14.240Z,22.50
2023-05-19T10:36:08.380Z,22.63
2023-05-19T10:37:21.703Z,22.71
2023-05-19T10:38:35.120Z,22.72
2023-05-19T10:39:36.865Z,22.71
2023-05-19T10:41:11.693Z,22.73
2023-05-19T10:42:24.278Z,22.74
2023-05-19T10:43:36.299Z,22.75
2023-05-19T10:44:58.498Z,22.67
2023-05-19T10:46:00.169Z,22.53
2023-05-19T10:47:02.036Z,22.50
2023-05-19T10:48:04.582Z,22.44
2023-05-19T10:49:08.022Z,22.42
2023-05-19T10:50:10.691Z,22.48
2023-05-19T10:51:12.472Z,22.56
2023-05-19T10:52:26.201Z,22.57
2023-05-19T10:53:32.711Z,22.59
2023-05-19T10:54:46.857Z,22.64
2023-05-19T10:55:53.459Z,22.71
2023-05-19T10:56:57.052Z,22.70
2023-05-19T10:57:58.651Z,22.68
2023-05-19T10:59:01.287Z,22.61
2023-05-19T11:00:11.724Z,22.60
2023-05-19T11:01:15.136Z,22.50
2023-05-19T11:02:43.262Z,22.58
2023-05-19T11:03:50.097Z,22.60
2023-05-19T11:04:52.399Z,22.68
2023-05-19T11:06:14.022Z,22.72
2023-05-19T11:07:22.479Z,22.69
2023-05-19T11:08:34.982Z,22.81
2023-05-19T11:09:43.041Z,22.90
2023-05-19T11:10:46.662Z,23.05
2023-05-19T11:11:54.662Z,23.09
2023-05-19T11:12:58.246Z,23.12
2023-05-19T11:14:00.397Z,23.12
2023-05-19T11:15:03.359Z,23.12
2023-05-19T11:16:09.105Z,23.16
2023-05-19T11:17:15.634Z,23.24
2023-05-19T11:18:17.438Z,23.26
2023-05-19T11:19:25.502Z,23.29
2023-05-19T11:20:28.790Z,23.28
2023-05-19T11:21:52.288Z,23.15
2023-05-19T11:23:23.879Z,23.09
2023-05-19T11:24:46.409Z,23.19
2023-05-19T11:25:51.148Z,23.25
2023-05-19T11:26:54.858Z,23.19
2023-05-19T11:27:56.828Z,23.26
2023-05-19T11:30:34.029Z,23.11
2023-05-19T11:31:36.499Z,22.82
2023-05-19T11:32:44.352Z,22.82
2023-05-19T11:33:46.235Z,23.00
2023-05-19T11:34:49.491Z,23.04
2023-05-19T11:35:52.136Z,23.11
2023-05-19T11:36:53.807Z,23.17
2023-05-19T11:37:56.240Z,23.29
2023-05-19T11:38:59.922Z,23.44
2023-05-19T11:40:02.394Z,23.51
2023-05-19T11:42:39.970Z,23.81
2023-05-19T11:43:42.123Z,23.90
2023-05-19T11:44:47.724Z,23.98
2023-05-19T11:45:49.686Z,24.11
2023-05-19T11:46:51.809Z,24.19
2023-05-19T11:48:03.157Z,24.30
2023-05-19T11:49:05.373Z,24.37
2023-05-19T11:50:07.749Z,24.38
2023-05-19T11:51:09.402Z,24.48
2023-05-19T11:52:11.897Z,24.56
2023-05-19T11:53:14.275Z,24.36
2023-05-19T11:54:19.308Z,24.08
2023-05-19T11:55:22.503Z,23.86
2023-05-19T11:56:24.097Z,23.89
2023-05-19T11:57:25.791Z,23.95
2023-05-19T11:58:28.246Z,23.91
2023-05-19T11:59:37.811Z,23.90
2023-05-19T12:00:40.909Z,23.86
2023-05-19T12:01:42.749Z,23.97
2023-05-19T12:02:44.365Z,24.03
2023-05-19T12:03:46.554Z,24.04
2023-05-19T12:04:51.773Z,23.93
2023-05-19T12:05:54.042Z,23.83
2023-05-19T12:06:55.776Z,23.78
2023-05-19T12:07:57.769Z,23.75
2023-05-19T12:09:00.056Z,23.66
2023-05-19T12:10:01.819Z,23.61
2023-05-19T12:11:04.552Z,23.64
2023-05-19T12:12:06.311Z,23.67
2023-05-19T12:13:09.957Z,23.73
2023-05-19T12:14:13.016Z,23.69
2023-05-19T12:15:14.682Z,23.68
2023-05-19T12:16:19.814Z,23.61
2023-05-19T12:17:23.941Z,23.62
2023-05-19T12:18:30.691Z,23.64
2023-05-19T12:19:32.558Z,23.64
2023-05-19T12:20:36.133Z,23.71
2023-05-19T12:21:38.506Z,23.72
2023-05-19T12:22:40.399Z,23.74
2023-05-19T12:23:42.655Z,23.78
2023-05-19T12:24:47.103Z,23.73
2023-05-19T12:25:49.349Z,23.65
2023-05-19T12:26:50.949Z,23.60
2023-05-19T12:27:58.082Z,23.39
2023-05-19T12:29:00.037Z,23.27
2023-05-19T12:30:03.699Z,23.14
2023-05-19T12:31:06.066Z,23.11
2023-05-19T12:32:09.155Z,23.15
2023-05-19T12:33:11.944Z,23.20
2023-05-19T12:34:14.026Z,23.17
2023-05-19T12:35:15.943Z,23.15
2023-05-19T12:36:18.435Z,23.12
2023-05-19T12:37:20.044Z,23.11
2023-05-19T12:38:22.971Z,23.11
2023-05-19T12:39:24.828Z,23.04
2023-05-19T12:40:29.367Z,22.99
2023-05-19T12:41:31.016Z,22.99
2023-05-19T12:42:32.735Z,23.00
2023-05-19T12:43:34.273Z,22.97
2023-05-19T12:44:43.879Z,22.98
2023-05-19T12:45:45.574Z,23.00
2023-05-19T12:46:47.229Z,22.95
2023-05-19T12:47:50.242Z,23.00
2023-05-19T12:48:51.894Z,23.03
2023-05-19T12:50:13.739Z,23.11
2023-05-19T12:51:19.986Z,23.12
2023-05-19T12:52:25.383Z,23.08
2023-05-19T12:53:28.100Z,23.12
2023-05-19T12:54:35.535Z,23.13
2023-05-19T12:55:45.645Z,23.12
2023-05-19T12:56:55.014Z,23.14
2023-05-19T12:57:58.388Z,23.15
2023-05-19T12:59:01.986Z,23.17
2023-05-19T13:00:15.408Z,23.22
2023-05-19T13:01:18.617Z,23.26
2023-05-19T13:02:21.412Z,23.30
2023-05-19T13:03:23.131Z,23.31
2023-05-19T13:04:26.133Z,23.37
2023-05-19T13:05:29.403Z,23.45
2023-05-19T13:06:32.824Z,23.53
2023-05-19T13:07:35.745Z,23.58
2023-05-19T13:08:41.223Z,23.61
2023-05-19T13:09:42.813Z,23.69
2023-05-19T13:10:45.999Z,23.77
2023-05-19T13:11:54.864Z,23.89
2023-05-19T13:12:57.635Z,23.93
2023-05-19T13:13:59.224Z,23.78
2023-05-19T13:15:01.955Z,23.73
2023-05-19T13:16:03.639Z,23.63
2023-05-19T13:17:06.361Z,23.62
2023-05-19T13:18:10.328Z,23.60
2023-05-19T13:19:25.026Z,23.50
2023-05-19T13:20:28.637Z,23.53
2023-05-19T13:21:30.415Z,23.66
2023-05-19T13:22:32.044Z,23.74
2023-05-19T13:23:34.846Z,23.74
2023-05-19T13:24:36.493Z,23.84
2023-05-19T13:25:38.098Z,23.94
2023-05-19T13:26:41.641Z,23.97
2023-05-19T13:27:45.809Z,24.05
2023-05-19T13:28:47.943Z,24.17
2023-05-19T13:29:49.644Z,24.20
2023-05-19T13:30:52.171Z,24.18
2023-05-19T13:31:54.057Z,24.16
2023-05-19T13:32:55.966Z,24.14
2023-05-19T13:33:57.752Z,24.31
2023-05-19T13:35:01.814Z,24.37
2023-05-19T13:36:03.557Z,24.40
2023-05-19T13:37:06.167Z,24.37
2023-05-19T13:38:10.515Z,24.35
2023-05-19T13:39:12.445Z,24.36
2023-05-19T13:40:15.219Z,24.33
2023-05-19T13:41:18.298Z,24.38
2023-05-19T13:42:20.007Z,24.45
2023-05-19T13:43:21.864Z,24.40
2023-05-19T13:44:25.812Z,24.38
2023-05-19T13:45:27.550Z,24.36
2023-05-19T13:46:40.964Z,24.29
2023-05-19T13:47:46.706Z,24.19
2023-05-19T13:48:48.319Z,24.18
2023-05-19T13:49:50.615Z,24.12
2023-05-19T13:50:54.358Z,24.07